Time;durP1;ratioP1;P1;durP2;ratioP2;P2;SDS_P1;SDS_P2;PMS_P1;PMS_P2;Temp;Humidity;BMP_temperature;BMP_pressure;BME280_temperature;BME280_humidity;BME280_pressure;Samples;Min_cycle;Max_cycle;Signal;HPM_P1;HPM_P2
2022/12/22 03:28:13;;;;;;;;;92.75;82.50;;;;;13.68;45.56;99444.78;5023628;28;10890;-75
2022/12/22 03:30:42;;;;;;;;;88.25;75.75;;;;;13.68;45.87;99443.94;5022425;28;10497;-77
2022/12/22 03:33:10;;;;;;;;;89.00;76.00;;;;;13.71;45.99;99446.53;5009911;28;10556;-77
2022/12/22 03:35:40;;;;;;;;;91.00;79.00;;;;;13.79;45.71;99437.63;5041622;28;10332;-78
2022/12/22 03:38:09;;;;;;;;;87.00;73.50;;;;;13.81;45.59;99435.00;5008525;28;10439;-78
2022/12/22 03:40:37;;;;;;;;;86.75;67.00;;;;;13.85;45.54;99441.91;5008649;28;10305;-75
2022/12/22 03:48:41;;;;;;;;;94.75;80.75;;;;;11.56;52.20;99455.66;5009784;28;10476;-76
2022/12/22 03:51:11;;;;;;;;;94.25;80.25;;;;;12.17;50.28;99456.97;5009725;28;10728;-77
2022/12/22 03:53:40;;;;;;;;;96.50;85.25;;;;;12.37;49.53;99443.72;4988967;28;10491;-78
2022/12/22 03:56:09;;;;;;;;;96.75;90.00;;;;;12.54;49.25;99448.81;5007870;28;11062;-76
2022/12/22 03:58:37;;;;;;;;;94.00;81.25;;;;;12.70;48.42;99449.50;5006814;28;11024;-75
2022/12/22 04:01:07;;;;;;;;;102.25;92.75;;;;;12.15;50.55;99452.66;5006480;28;10799;-77
2022/12/22 04:03:36;;;;;;;;;105.75;97.00;;;;;12.07;51.12;99456.19;5007162;28;10956;-77
2022/12/22 04:06:04;;;;;;;;;97.00;87.00;;;;;11.68;52.18;99454.69;5007484;28;11163;-79
2022/12/22 04:08:34;;;;;;;;;96.00;86.50;;;;;11.54;52.41;99452.19;5007232;28;10789;-76
2022/12/22 04:13:49;;;;;;;;;153.25;139.75;;;;;12.07;51.00;99447.47;5007572;28;11569;-74
2022/12/22 04:16:18;;;;;;;;;122.50;107.75;;;;;11.49;52.87;99448.72;4974263;28;11652;-75
2022/12/22 04:18:46;;;;;;;;;118.50;110.75;;;;;11.38;52.96;99453.13;4989316;28;11669;-75
2022/12/22 04:21:15;;;;;;;;;129.50;115.75;;;;;11.93;51.05;99445.00;4973859;28;11663;-77
2022/12/22 04:23:45;;;;;;;;;129.75;117.25;;;;;11.83;50.48;99448.50;5006488;28;12852;-76
2022/12/22 04:26:13;;;;;;;;;133.00;117.00;;;;;11.63;51.85;99446.03;4974384;28;11650;-76
2022/12/22 04:28:42;;;;;;;;;133.00;120.75;;;;;11.03;53.98;99447.22;4974188;28;11581;-78
2022/12/22 04:31:11;;;;;;;;;123.25;113.00;;;;;11.66;52.39;99435.56;4996136;28;11746;-75
2022/12/22 04:33:39;;;;;;;;;113.25;103.00;;;;;12.03;50.14;99441.41;5009163;28;11674;-77
2022/12/22 04:36:09;;;;;;;;;119.75;108.50;;;;;12.22;50.37;99436.91;5007343;28;11598;-77
2022/12/22 04:38:38;;;;;;;;;109.00;99.75;;;;;12.46;50.00;99434.94;4991688;28;11706;-77
2022/12/22 04:41:08;;;;;;;;;123.00;106.00;;;;;12.63;49.44;99429.53;5024008;28;11611;-77
2022/12/22 04:43:37;;;;;;;;;122.25;108.25;;;;;12.78;48.63;99429.38;5008908;28;11656;-76
2022/12/22 04:46:06;;;;;;;;;105.25;101.50;;;;;12.94;48.10;99427.41;5007353;28;12480;-79
2022/12/22 04:48:35;;;;;;;;;111.00;101.25;;;;;13.08;47.93;99422.03;5022745;28;11618;-76
2022/12/22 04:51:04;;;;;;;;;98.00;87.25;;;;;13.21;47.81;99436.69;5008540;28;11625;-76
2022/12/22 04:53:34;;;;;;;;;111.00;106.00;;;;;13.15;48.20;99428.03;4989659;28;10867;-76
2022/12/22 04:56:04;;;;;;;;;123.75;111.25;;;;;13.18;47.53;99431.50;5006032;28;11638;-74
2022/12/22 04:58:35;;;;;;;;;88.75;70.75;;;;;13.22;47.55;99437.56;5014009;28;11623;-80
2022/12/22 05:01:11;;;;;;;;;92.25;75.25;;;;;13.41;47.19;99435.59;4944960;28;10589;-73
2022/12/22 05:03:40;;;;;;;;;94.75;82.50;;;;;13.36;47.17;99437.41;5009263;28;10640;-78
2022/12/22 05:06:08;;;;;;;;;104.25;92.00;;;;;13.43;47.26;99424.19;5009472;28;10399;-76
2022/12/22 05:08:37;;;;;;;;;127.75;116.00;;;;;13.47;46.85;99427.63;5004271;28;11409;-78
2022/12/22 05:11:06;;;;;;;;;99.00;91.75;;;;;13.52;47.18;99424.97;5005512;28;11734;-76
2022/12/22 05:13:37;;;;;;;;;93.25;79.75;;;;;13.59;46.84;99435.34;4989030;28;11220;-77
2022/12/22 05:16:07;;;;;;;;;98.25;82.50;;;;;13.29;47.19;99435.69;5005934;28;10620;-76
2022/12/22 05:18:36;;;;;;;;;91.00;75.00;;;;;12.72;48.66;99446.88;4989185;28;10533;-77
2022/12/22 05:21:07;;;;;;;;;92.25;80.50;;;;;11.51;52.39;99449.56;5005860;28;11359;-75
2022/12/22 05:23:36;;;;;;;;;97.00;86.75;;;;;11.88;51.35;99457.19;4995173;28;10728;-75
2022/12/22 05:26:06;;;;;;;;;94.00;87.25;;;;;11.56;52.96;99465.25;5038684;28;10975;-74
2022/12/22 05:28:34;;;;;;;;;95.50;88.25;;;;;11.53;52.80;99460.91;5045112;28;10992;-77
2022/12/22 05:31:05;;;;;;;;;96.25;85.75;;;;;12.09;51.13;99459.66;4977945;28;10859;-75
2022/12/22 05:33:35;;;;;;;;;93.50;85.75;;;;;11.49;53.23;99470.50;4988719;28;10888;-77
2022/12/22 05:36:04;;;;;;;;;132.75;121.00;;;;;11.74;52.36;99461.63;4990065;28;11065;-75
2022/12/22 05:38:33;;;;;;;;;106.50;98.25;;;;;12.08;51.07;99465.78;5005704;28;11691;-78
2022/12/22 05:41:01;;;;;;;;;97.75;84.00;;;;;12.33;50.91;99464.72;4973726;28;11749;-77
2022/12/22 05:43:32;;;;;;;;;102.75;94.75;;;;;11.49;53.41;99472.22;4998416;28;11108;-78
2022/12/22 05:46:02;;;;;;;;;97.50;88.25;;;;;10.97;55.06;99469.88;4988370;28;11317;-78
2022/12/22 05:48:33;;;;;;;;;97.50;87.50;;;;;10.91;55.27;99468.16;4972197;28;10909;-76
2022/12/22 05:51:08;;;;;;;;;93.50;80.50;;;;;10.97;55.08;99465.50;4972344;28;10927;-75
2022/12/22 05:53:38;;;;;;;;;100.50;91.00;;;;;11.06;55.05;99469.84;4999993;28;11801;-75
2022/12/22 05:56:07;;;;;;;;;96.50;90.25;;;;;10.70;56.23;99479.50;4991753;28;10986;-76
2022/12/22 05:58:38;;;;;;;;;112.75;98.25;;;;;10.67;56.58;99479.50;5007356;28;11150;-77
2022/12/22 06:01:07;;;;;;;;;104.25;85.75;;;;;11.11;55.37;99476.78;4990283;28;11317;-79
2022/12/22 06:03:37;;;;;;;;;105.75;93.75;;;;;11.36;54.40;99487.09;5007872;28;11100;-78
2022/12/22 06:06:06;;;;;;;;;109.75;96.50;;;;;10.82;56.00;99489.91;5026022;28;11634;-79
2022/12/22 06:08:35;;;;;;;;;114.50;103.75;;;;;10.85;55.98;99494.22;5011584;28;11281;-76
2022/12/22 06:11:04;;;;;;;;;107.25;100.00;;;;;10.61;57.08;99489.94;5010105;28;11314;-75
2022/12/22 06:13:32;;;;;;;;;106.75;96.00;;;;;10.95;56.15;99492.50;5056628;28;11629;-75
2022/12/22 06:16:01;;;;;;;;;114.00;98.25;;;;;10.63;56.76;99491.66;5007095;28;11600;-78
2022/12/22 06:18:30;;;;;;;;;116.25;105.00;;;;;10.27;57.92;99496.03;5022206;28;11607;-77
2022/12/22 06:21:00;;;;;;;;;102.25;94.75;;;;;10.36;58.24;99492.59;5046396;28;11711;-78
2022/12/22 06:23:33;;;;;;;;;106.25;100.25;;;;;10.56;57.46;99492.53;4975020;28;11618;-79
2022/12/22 06:26:02;;;;;;;;;132.50;122.00;;;;;10.97;55.61;99488.13;5025171;28;11600;-77
2022/12/22 06:28:31;;;;;;;;;137.75;123.50;;;;;11.35;54.15;99485.34;5028308;28;11655;-78
2022/12/22 06:30:59;;;;;;;;;144.25;126.25;;;;;11.63;53.83;99487.84;5028054;28;11649;-77
2022/12/22 06:33:28;;;;;;;;;133.75;120.75;;;;;11.88;52.94;99481.56;5024799;28;11680;-76
2022/12/22 06:35:57;;;;;;;;;144.25;128.00;;;;;11.66;52.36;99499.13;5005410;28;11883;-79
2022/12/22 06:38:28;;;;;;;;;130.50;122.25;;;;;10.06;58.04;99514.25;5052015;28;11691;-80
2022/12/22 06:40:57;;;;;;;;;114.75;108.75;;;;;9.52;59.95;99515.00;5006558;28;11686;-79
2022/12/22 06:43:25;;;;;;;;;136.25;119.50;;;;;9.52;60.04;99509.78;5044112;28;11576;-77
2022/12/22 06:45:54;;;;;;;;;128.25;116.75;;;;;9.86;58.76;99498.59;4971145;28;1164328;-79
2022/12/22 06:48:24;;;;;;;;;129.00;115.00;;;;;10.36;56.96;99505.63;5025196;28;11704;-79
2022/12/22 06:50:56;;;;;;;;;134.00;118.50;;;;;10.74;55.71;99504.69;5025384;28;11597;-78
2022/12/22 06:53:25;;;;;;;;;115.75;108.50;;;;;11.12;54.64;99495.91;5024217;28;11624;-76
2022/12/22 06:55:55;;;;;;;;;131.00;122.50;;;;;11.43;53.25;99491.41;5010526;28;11607;-78
2022/12/22 06:58:24;;;;;;;;;136.25;122.50;;;;;11.67;52.35;99476.47;5046529;28;11668;-78
2022/12/22 07:00:56;;;;;;;;;127.00;114.00;;;;;11.92;51.23;99471.13;5026779;28;11724;-76
2022/12/22 07:03:24;;;;;;;;;121.25;110.00;;;;;12.00;51.02;99479.78;5013944;28;11595;-79
2022/12/22 07:05:53;;;;;;;;;128.00;118.50;;;;;12.10;51.56;99484.06;5031183;28;11750;-78
2022/12/22 07:08:22;;;;;;;;;133.00;123.50;;;;;12.29;51.03;99484.78;5031966;28;11696;-79
2022/12/22 07:10:59;;;;;;;;;132.25;115.75;;;;;12.47;49.93;99483.75;4998621;28;11609;-76
2022/12/22 07:13:32;;;;;;;;;137.00;119.50;;;;;12.62;49.24;99485.34;5044446;28;11626;-79
2022/12/22 07:16:01;;;;;;;;;127.50;113.50;;;;;12.72;48.66;99488.72;4997367;28;11639;-77
2022/12/22 07:18:32;;;;;;;;;122.25;111.50;;;;;12.82;48.51;99490.38;4987612;28;11589;-78
2022/12/22 07:21:02;;;;;;;;;139.75;123.50;;;;;12.92;48.56;99484.16;5031736;28;11611;-79
2022/12/22 07:23:32;;;;;;;;;138.00;129.00;;;;;12.98;47.88;99491.94;5027880;28;11698;-79
2022/12/22 07:26:01;;;;;;;;;114.50;98.25;;;;;13.05;47.76;99493.59;5024616;28;11741;-78
2022/12/22 07:28:33;;;;;;;;;141.75;132.75;;;;;13.14;47.89;99486.53;4968109;28;11737;-76
2022/12/22 07:31:01;;;;;;;;;132.50;125.00;;;;;13.19;47.48;99495.19;5013286;28;11760;-79
2022/12/22 07:33:30;;;;;;;;;134.25;121.00;;;;;13.16;47.36;99503.09;5025028;28;11706;-80
2022/12/22 07:36:07;;;;;;;;;144.50;129.50;;;;;13.32;47.49;99502.03;5006123;28;12518;-82
2022/12/22 07:38:39;;;;;;;;;134.50;121.00;;;;;13.24;46.73;99507.34;5009044;28;11659;-80
2022/12/22 07:42:43;;;;;;;;;133.25;125.25;;;;;13.33;47.06;99506.41;5024214;28;12458;-80
2022/12/22 07:43:59;;;;;;;;;139.50;127.25;;;;;13.46;46.87;99509.75;5024407;28;12718;-78
2022/12/22 07:46:30;;;;;;;;;141.25;123.75;;;;;13.44;46.45;99509.75;5027290;28;11654;-77
2022/12/22 07:51:45;;;;;;;;;128.25;118.00;;;;;13.52;46.55;99507.03;5041385;28;11640;-78
2022/12/22 07:54:16;;;;;;;;;136.25;122.00;;;;;13.53;47.07;99510.50;5025039;28;11667;-79
2022/12/22 07:56:46;;;;;;;;;147.25;130.25;;;;;13.53;46.64;99505.28;4992013;28;11684;-78
2022/12/22 07:59:17;;;;;;;;;130.75;120.00;;;;;13.56;46.73;99500.00;5009946;28;12455;-78
2022/12/22 08:01:47;;;;;;;;;144.25;127.25;;;;;13.55;47.33;99501.72;5024936;28;11752;-79
2022/12/22 08:04:16;;;;;;;;;123.25;112.25;;;;;13.45;47.34;99503.63;4992071;28;11743;-78
2022/12/22 08:06:45;;;;;;;;;141.25;128.75;;;;;13.47;47.87;99497.50;5024737;28;12455;-79
2022/12/22 08:09:20;;;;;;;;;147.25;125.75;;;;;13.47;47.71;99500.97;5010026;28;11855;-77
2022/12/22 08:11:49;;;;;;;;;140.25;128.00;;;;;13.39;48.12;99505.47;5028497;28;11654;-78
2022/12/22 08:14:20;;;;;;;;;147.00;136.75;;;;;13.40;48.52;99509.78;4995223;28;11681;-79
2022/12/22 08:16:48;;;;;;;;;140.25;128.75;;;;;13.45;48.40;99505.38;5012545;28;12441;-79
2022/12/22 08:19:17;;;;;;;;;142.25;127.75;;;;;13.56;48.15;99507.88;4995981;28;11784;-81
2022/12/22 08:21:47;;;;;;;;;139.50;126.25;;;;;13.64;47.77;99508.63;5029113;28;12507;-78
2022/12/22 08:24:21;;;;;;;;;139.00;126.25;;;;;13.60;47.95;99504.31;5008990;28;11776;-79
2022/12/22 08:26:53;;;;;;;;;140.25;128.50;;;;;13.72;47.52;99505.88;4992024;28;11661;-80
2022/12/22 08:29:26;;;;;;;;;132.25;117.75;;;;;13.79;47.62;99510.16;4992049;28;11664;-75
2022/12/22 08:31:55;;;;;;;;;110.25;102.25;;;;;13.78;47.48;99506.69;5042279;28;11650;-78
2022/12/22 08:34:24;;;;;;;;;130.00;118.25;;;;;13.87;47.32;99503.03;4992483;28;11641;-81
2022/12/22 08:36:57;;;;;;;;;126.25;114.50;;;;;13.98;47.38;99505.50;4990177;28;11662;-78
2022/12/22 08:39:30;;;;;;;;;118.75;107.00;;;;;14.03;46.89;99499.31;5006482;28;11796;-80
2022/12/22 08:42:00;;;;;;;;;131.75;120.25;;;;;13.87;47.12;99505.66;5023081;28;11648;-78
2022/12/22 08:44:30;;;;;;;;;125.25;115.00;;;;;13.92;46.87;99508.25;5006070;28;11685;-78
2022/12/22 08:47:00;;;;;;;;;132.00;113.25;;;;;13.73;47.57;99511.13;5012178;28;11805;-80
2022/12/22 08:49:28;;;;;;;;;134.00;116.75;;;;;13.82;47.33;99505.75;5026555;28;11661;-80
2022/12/22 08:51:57;;;;;;;;;133.75;115.25;;;;;13.94;47.39;99501.22;5009672;28;11785;-79
2022/12/22 08:54:26;;;;;;;;;145.00;129.50;;;;;13.68;47.81;99517.31;5010329;28;12504;-78
2022/12/22 08:56:54;;;;;;;;;135.75;125.50;;;;;13.63;47.79;99507.75;5010011;28;11765;-77
2022/12/22 08:59:23;;;;;;;;;126.25;117.00;;;;;13.80;47.67;99509.28;5009730;28;11677;-77
2022/12/22 09:01:53;;;;;;;;;131.50;119.75;;;;;13.92;47.57;99495.97;5012870;28;11663;-82
2022/12/22 09:04:24;;;;;;;;;125.25;111.50;;;;;13.99;47.42;99502.88;4990621;28;11788;-77
2022/12/22 09:06:53;;;;;;;;;126.50;115.00;;;;;14.11;47.16;99501.81;4990995;28;11603;-80
2022/12/22 09:09:22;;;;;;;;;137.50;118.00;;;;;14.20;46.80;99496.44;5024557;28;11772;-80
2022/12/22 09:11:50;;;;;;;;;127.00;117.50;;;;;14.23;46.86;99501.63;5007768;28;11796;-78
2022/12/22 09:14:19;;;;;;;;;138.00;125.25;;;;;14.28;46.84;99498.06;5024136;28;11662;-77
2022/12/22 09:16:49;;;;;;;;;122.50;117.00;;;;;14.40;46.34;99501.34;5007478;28;11648;-78
2022/12/22 09:19:19;;;;;;;;;120.75;117.25;;;;;14.29;46.62;99503.28;5008890;28;11695;-79
2022/12/22 09:21:48;;;;;;;;;129.00;118.25;;;;;14.37;46.43;99504.03;5024698;28;12418;-80
2022/12/22 09:24:17;;;;;;;;;145.50;134.00;;;;;13.54;48.67;99507.88;4991941;28;11869;-76
2022/12/22 09:26:46;;;;;;;;;145.00;130.75;;;;;13.27;49.25;99502.06;5007718;28;11952;-79
2022/12/22 09:29:15;;;;;;;;;123.75;107.75;;;;;13.25;49.49;99496.00;5007539;28;11654;-77
2022/12/22 09:31:44;;;;;;;;;149.75;136.25;;;;;13.40;48.98;99508.06;4991539;28;11677;-76
2022/12/22 09:34:13;;;;;;;;;150.50;136.50;;;;;13.63;48.57;99504.28;5024080;28;11702;-82
2022/12/22 09:36:47;;;;;;;;;145.00;130.75;;;;;13.82;48.10;99490.03;5007525;28;11644;-79
2022/12/22 09:39:17;;;;;;;;;147.00;136.00;;;;;13.93;47.81;99492.50;5023849;28;11680;-78
2022/12/22 09:41:55;;;;;;;;;145.75;132.25;;;;;14.06;47.58;99484.41;4976124;28;11667;-79
2022/12/22 09:44:26;;;;;;;;;143.75;128.50;;;;;14.20;47.25;99482.47;5040421;28;12465;-78
2022/12/22 09:46:57;;;;;;;;;137.50;125.25;;;;;14.06;47.48;99477.41;5007903;28;11644;-80
2022/12/22 09:49:27;;;;;;;;;153.25;140.50;;;;;14.24;47.18;99476.25;5024017;28;11840;-78
2022/12/22 09:51:59;;;;;;;;;137.50;127.75;;;;;14.42;47.05;99465.47;4991680;28;11658;-79
2022/12/22 09:54:30;;;;;;;;;129.75;117.50;;;;;14.45;46.57;99472.41;5008014;28;11678;-77
2022/12/22 09:56:59;;;;;;;;;137.75;122.00;;;;;14.57;46.55;99463.47;5003444;28;11763;-77
2022/12/22 09:59:30;;;;;;;;;143.50;134.25;;;;;14.69;46.27;99467.63;5027050;28;11734;-78
2022/12/22 10:02:15;;;;;;;;;143.00;134.50;;;;;14.75;46.17;99468.38;5043605;28;11654;-79
2022/12/22 10:05:10;;;;;;;;;142.75;125.00;;;;;14.97;45.68;99460.09;5010510;28;11645;-79
2022/12/22 10:07:41;;;;;;;;;139.25;129.25;;;;;14.82;45.91;99462.13;4993065;28;11647;-78
2022/12/22 10:10:23;;;;;;;;;148.00;133.00;;;;;15.02;45.45;99448.59;5026705;28;11649;-78
2022/12/22 10:12:54;;;;;;;;;127.00;121.00;;;;;15.00;45.33;99444.28;5010133;28;11657;-79
2022/12/22 10:15:24;;;;;;;;;147.25;131.50;;;;;15.06;45.19;99451.16;5026306;28;12421;-80
2022/12/22 10:18:07;;;;;;;;;153.50;135.25;;;;;14.92;45.75;99438.31;5026101;28;11656;-78
2022/12/22 10:20:38;;;;;;;;;141.75;129.25;;;;;15.05;45.47;99436.28;5032077;28;11644;-77
2022/12/22 10:23:17;;;;;;;;;130.00;119.00;;;;;15.19;45.25;99443.00;4986828;28;11817;-76
2022/12/22 10:26:03;;;;;;;;;132.75;122.25;;;;;15.34;45.18;99430.44;5020448;28;11594;-79
2022/12/22 10:28:56;;;;;;;;;134.75;119.75;;;;;15.22;44.97;99436.84;5021802;28;11629;-77
2022/12/22 10:31:27;;;;;;;;;135.00;125.50;;;;;15.16;45.21;99429.06;5019093;28;11599;-79
2022/12/22 10:33:57;;;;;;;;;142.50;134.50;;;;;15.18;45.26;99422.91;5035735;28;11594;-81
2022/12/22 10:36:30;;;;;;;;;129.00;118.00;;;;;15.20;44.79;99420.25;5016705;28;11703;-79
2022/12/22 10:39:02;;;;;;;;;137.75;128.75;;;;;15.31;45.22;99412.09;5031958;28;11651;-79
2022/12/22 10:41:35;;;;;;;;;129.00;116.25;;;;;15.27;45.35;99407.81;5032553;28;11664;-79
2022/12/22 10:44:08;;;;;;;;;125.25;117.50;;;;;15.40;44.84;99404.03;5030998;28;11624;-81
2022/12/22 10:46:41;;;;;;;;;107.00;89.00;;;;;15.55;44.86;99393.16;5002436;28;11606;-77
2022/12/22 10:49:21;;;;;;;;;130.25;117.50;;;;;15.81;44.40;99389.09;5033167;28;11612;-81
2022/12/22 10:51:54;;;;;;;;;139.25;125.75;;;;;15.74;44.41;99383.09;5017776;28;12429;-77
2022/12/22 10:54:34;;;;;;;;;148.50;131.25;;;;;15.98;44.26;99376.38;4991802;28;11670;-78
2022/12/22 10:57:07;;;;;;;;;136.25;126.00;;;;;16.00;44.09;99365.81;4971735;28;11676;-80
2022/12/22 10:59:48;;;;;;;;;134.25;128.50;;;;;16.27;43.90;99369.47;4972099;28;11738;-81
2022/12/22 11:02:36;;;;;;;;;137.00;121.00;;;;;16.27;43.36;99363.38;4995880;28;12416;-79
2022/12/22 11:05:08;;;;;;;;;127.25;115.00;;;;;16.02;43.81;99369.25;4991655;28;11663;-78
2022/12/22 11:07:38;;;;;;;;;67.25;51.50;;;;;15.92;43.63;99363.38;4991992;28;11588;-80
2022/12/22 11:10:24;;;;;;;;;130.25;116.50;;;;;16.22;43.79;99367.88;4991548;28;12327;-78
2022/12/22 11:13:16;;;;;;;;;123.25;110.50;;;;;16.41;43.58;99366.50;4992048;28;11661;-80
2022/12/22 11:15:51;;;;;;;;;112.00;104.00;;;;;16.40;43.04;99361.28;4997462;28;11561;-78
2022/12/22 11:18:33;;;;;;;;;123.50;111.25;;;;;16.54;43.06;99364.38;4988240;28;11578;-80
2022/12/22 11:21:05;;;;;;;;;118.00;102.25;;;;;16.56;42.70;99358.16;4988068;28;11597;-80
2022/12/22 11:23:42;;;;;;;;;120.25;108.50;;;;;16.66;42.69;99357.91;4971617;28;12372;-80
2022/12/22 11:26:20;;;;;;;;;118.75;111.00;;;;;16.56;42.88;99359.94;4987734;28;11610;-79
2022/12/22 11:29:01;;;;;;;;;113.75;105.75;;;;;16.72;42.55;99348.06;5017604;28;11606;-79
2022/12/22 11:31:42;;;;;;;;;109.00;101.75;;;;;16.86;42.49;99341.56;5029972;28;11759;-79
2022/12/22 11:34:25;;;;;;;;;110.50;105.00;;;;;16.96;42.23;99340.38;5047037;28;11717;-78
2022/12/22 11:37:04;;;;;;;;;110.50;101.25;;;;;17.03;42.46;99341.03;5030840;28;11550;-79
2022/12/22 11:39:40;;;;;;;;;107.25;100.25;;;;;17.10;41.73;99335.53;5014111;28;12353;-81
2022/12/22 11:42:29;;;;;;;;;111.25;94.50;;;;;17.29;41.80;99329.72;5022654;28;11630;-80
2022/12/22 11:45:08;;;;;;;;;102.00;99.50;;;;;17.20;41.29;99324.72;4997472;28;12511;-76
2022/12/22 11:47:47;;;;;;;;;105.75;91.50;;;;;17.20;41.71;99322.09;5005776;28;11625;-78
2022/12/22 11:50:28;;;;;;;;;101.75;96.00;;;;;17.33;41.85;99319.03;5005269;28;11613;-80
2022/12/22 11:53:40;;;;;;;;;90.00;81.50;;;;;17.22;40.93;99318.50;4989406;28;12491;-78
2022/12/22 11:56:20;;;;;;;;;99.75;86.75;;;;;17.04;41.39;99314.66;5005800;28;11192;-78
2022/12/22 11:59:04;;;;;;;;;102.50;92.75;;;;;17.04;41.67;99311.19;4973386;28;11308;-82
2022/12/22 12:01:51;;;;;;;;;94.25;87.25;;;;;17.22;41.47;99320.25;4983289;28;12398;-78
2022/12/22 12:04:40;;;;;;;;;87.25;77.75;;;;;17.36;41.59;99325.13;4992142;28;11855;-78
2022/12/22 12:07:22;;;;;;;;;93.75;87.25;;;;;17.44;41.22;99313.41;4991858;28;10924;-81
2022/12/22 12:10:06;;;;;;;;;96.75;88.00;;;;;17.42;41.04;99312.59;5024421;28;11363;-79
2022/12/22 12:12:48;;;;;;;;;109.75;98.50;;;;;17.56;41.13;99304.25;4991973;28;11103;-79
2022/12/22 12:15:29;;;;;;;;;93.25;84.00;;;;;17.63;41.01;99295.19;5009485;28;11585;-79
2022/12/22 12:18:27;;;;;;;;;95.50;86.00;;;;;17.66;40.66;99296.88;4991173;28;10955;-80
2022/12/22 12:21:12;;;;;;;;;81.25;65.50;;;;;17.71;40.54;99290.56;4916584;28;10637;-78
2022/12/22 12:24:03;;;;;;;;;84.75;71.25;;;;;17.72;40.68;99294.03;4916840;28;9934;-78
2022/12/22 12:26:36;;;;;;;;;81.50;67.75;;;;;17.59;40.68;99288.31;4916643;28;10179;-79
2022/12/22 12:29:14;;;;;;;;;83.50;73.25;;;;;17.73;40.48;99288.72;4932390;28;9799;-80
2022/12/22 12:31:48;;;;;;;;;85.75;73.00;;;;;17.58;40.80;99283.09;4938134;28;10504;-79
2022/12/22 12:34:20;;;;;;;;;78.00;59.75;;;;;17.58;41.01;99275.16;4935356;28;10347;-79
2022/12/22 12:36:56;;;;;;;;;75.00;59.50;;;;;17.72;40.59;99278.22;4935420;28;10598;-79
2022/12/22 12:39:31;;;;;;;;;79.00;63.00;;;;;17.68;40.91;99276.59;4951784;28;9561;-80
2022/12/22 12:42:10;;;;;;;;;78.00;63.67;;;;;17.77;41.14;99281.56;4951627;28;9567;-80
2022/12/22 12:44:40;;;;;;;;;73.33;57.33;;;;;17.76;40.85;99284.25;4942857;28;9491;-78
2022/12/22 12:47:24;;;;;;;;;76.00;57.00;;;;;17.93;41.02;99280.13;4955104;28;9683;-79
2022/12/22 12:50:26;;;;;;;;;77.00;61.00;;;;;17.97;40.91;99275.63;4971318;28;9050;-79
2022/12/22 12:53:07;;;;;;;;;86.50;75.25;;;;;17.89;41.16;99285.59;4954544;28;9600;-79
2022/12/22 12:55:53;;;;;;;;;85.50;69.75;;;;;17.66;41.42;99283.72;4986725;28;10801;-80
2022/12/22 12:58:51;;;;;;;;;83.00;71.00;;;;;17.52;41.84;99279.75;4981943;28;10034;-78
2022/12/22 13:01:58;;;;;;;;;78.50;63.25;;;;;17.41;42.40;99286.28;5043678;28;9979;-81
2022/12/22 13:04:59;;;;;;;;;75.00;57.67;;;;;17.31;42.44;99281.28;5011230;28;9481;-78
2022/12/22 13:08:10;;;;;;;;;68.67;54.67;;;;;17.28;42.72;99283.19;4970131;28;8953;-81
2022/12/22 13:10:42;;;;;;;;;75.33;59.33;;;;;17.23;42.88;99282.47;4954676;28;9112;-81
2022/12/22 13:13:33;;;;;;;;;78.00;65.00;;;;;16.53;44.08;99281.91;4938700;28;9255;-79
2022/12/22 13:16:21;;;;;;;;;88.00;77.75;;;;;16.44;44.88;99283.94;4970818;28;10294;-79
2022/12/22 13:18:51;;;;;;;;;91.50;90.00;;;;;16.59;44.54;99275.59;4955135;28;10524;-78
2022/12/22 13:21:25;;;;;;;;;136.75;127.00;;;;;16.83;44.12;99284.56;4954180;28;11636;-79
2022/12/22 13:24:21;;;;;;;;;242.00;222.75;;;;;17.09;43.16;99273.25;4948963;28;11672;-81
2022/12/22 13:26:56;;;;;;;;;224.25;204.00;;;;;17.18;42.70;99265.94;4934971;28;8890;-78
2022/12/22 13:29:29;;;;;;;;;230.75;209.00;;;;;17.29;42.61;99269.09;4966628;28;8839;-79
2022/12/22 13:32:02;;;;;;;;;231.50;212.75;;;;;17.37;42.25;99274.13;4971692;28;8868;-78
2022/12/22 13:34:41;;;;;;;;;237.50;213.00;;;;;17.53;42.05;99264.78;4970243;28;8969;-81
2022/12/22 13:37:30;;;;;;;;;218.00;188.75;;;;;17.51;41.96;99275.38;4954203;28;8884;-79
2022/12/22 13:40:25;;;;;;;;;233.00;205.75;;;;;17.78;41.89;99271.88;4970394;28;8852;-79
2022/12/22 13:42:57;;;;;;;;;251.75;227.75;;;;;17.62;42.34;99274.19;4894067;29;8905;-79
2022/12/22 13:45:32;;;;;;;;;247.00;227.50;;;;;17.63;41.92;99271.47;4942008;29;8891;-79
2022/12/22 13:48:06;;;;;;;;;216.00;196.50;;;;;17.62;42.08;99277.66;4963790;28;8896;-79
2022/12/22 13:50:38;;;;;;;;;179.67;171.67;;;;;17.64;42.27;99273.22;4932007;29;8845;-79
2022/12/22 13:53:10;;;;;;;;;206.33;182.33;;;;;17.61;42.48;99272.44;4947531;29;8876;-79
2022/12/22 13:55:52;;;;;;;;;205.00;182.00;;;;;17.62;42.45;99275.03;4933780;28;8849;-79
2022/12/22 13:58:27;;;;;;;;;194.67;181.00;;;;;17.70;42.35;99278.25;4935116;28;8837;-78
2022/12/22 14:01:04;;;;;;;;;173.67;163.67;;;;;17.73;42.30;99275.53;4951289;28;8895;-79
2022/12/22 14:03:33;;;;;;;;;163.33;150.67;;;;;17.64;42.51;99275.84;4967178;28;8920;-78
2022/12/22 14:06:27;;;;;;;;;186.33;169.00;;;;;17.76;42.63;99274.56;4934805;28;8877;-78
2022/12/22 14:09:13;;;;;;;;;189.33;170.00;;;;;17.85;42.34;99282.19;4918959;28;8896;-80
2022/12/22 14:11:47;;;;;;;;;178.33;164.67;;;;;17.70;42.53;99278.25;4916003;29;8865;-79
2022/12/22 14:14:24;;;;;;;;;186.33;162.00;;;;;17.67;42.63;99273.09;4916040;29;8861;-78
2022/12/22 14:16:57;;;;;;;;;159.67;150.00;;;;;17.65;42.25;99274.91;4936468;28;8866;-78
2022/12/22 14:19:27;;;;;;;;;166.33;151.67;;;;;17.59;42.37;99266.38;4973639;28;11671;-79
2022/12/22 14:22:07;;;;;;;;;160.50;145.25;;;;;17.68;42.59;99274.81;5006895;28;11713;-78
2022/12/22 14:24:43;;;;;;;;;150.50;138.50;;;;;17.57;42.55;99265.56;4990427;28;11674;-81
2022/12/22 14:27:18;;;;;;;;;118.25;104.50;;;;;17.60;42.57;99270.72;5022698;28;12278;-79
2022/12/22 14:29:47;;;;;;;;;157.50;146.50;;;;;17.51;42.75;99264.84;5006772;28;12485;-78
2022/12/22 14:32:35;;;;;;;;;152.75;142.75;;;;;17.66;42.61;99265.25;4990374;28;11650;-78
2022/12/22 14:35:15;;;;;;;;;155.25;136.25;;;;;17.47;42.41;99268.50;5006922;28;11836;-78
2022/12/22 14:37:43;;;;;;;;;77.33;59.00;;;;;17.48;42.38;99272.84;4974283;28;11792;-80
2022/12/22 14:40:28;;;;;;;;;163.00;152.33;;;;;17.48;42.70;99262.28;4990510;28;8958;-80
2022/12/22 14:43:01;;;;;;;;;182.33;158.33;;;;;17.47;42.56;99265.00;4973942;28;8907;-79
2022/12/22 14:45:29;;;;;;;;;212.00;190.00;;;;;17.41;42.44;99266.06;5005210;28;8854;-77
2022/12/22 14:47:59;;;;;;;;;203.33;178.67;;;;;17.32;42.72;99261.94;5009543;28;8969;-80
2022/12/22 14:50:29;;;;;;;;;194.33;173.67;;;;;17.32;42.67;99258.47;5010647;28;8862;-79
2022/12/22 14:53:00;;;;;;;;;211.00;177.33;;;;;17.29;42.61;99267.31;5011870;28;8937;-78
2022/12/22 14:55:31;;;;;;;;;219.00;196.00;;;;;17.25;42.55;99262.19;5010505;28;8843;-78
2022/12/22 14:58:06;;;;;;;;;211.67;192.67;;;;;17.30;42.96;99263.78;4993753;28;9596;-78
2022/12/22 15:00:38;;;;;;;;;197.00;183.67;;;;;17.20;43.00;99261.47;5005990;28;8858;-78
2022/12/22 15:03:30;;;;;;;;;201.33;184.33;;;;;17.28;42.50;99264.75;5009515;28;8893;-78
2022/12/22 15:06:23;;;;;;;;;176.33;160.33;;;;;17.22;42.76;99260.53;5025688;28;8874;-78
2022/12/22 15:08:53;;;;;;;;;159.00;148.00;;;;;17.03;42.99;99275.19;4991781;28;9666;-80
2022/12/22 15:11:24;;;;;;;;;171.00;153.33;;;;;17.02;43.27;99265.56;4991548;28;11882;-79
2022/12/22 15:13:54;;;;;;;;;190.00;175.00;;;;;17.07;42.99;99263.63;4991427;28;12480;-80
2022/12/22 15:16:23;;;;;;;;;180.00;166.67;;;;;17.03;43.34;99267.28;5008019;28;9012;-79